ABY587 OMSJ-VCBI
Flight info
| Callsign | ABY587 |
|---|---|
| Flight time | N/A |
| Altitude | 35000 |
| Route | ANVIX L223 TARDI N629 GIDAN P570 EMURU M300 VASTU P895 BIKOK BIKOK1A |
| Aircraft | A320/M-SDE3FGHIRWY/LB1 |
Departure
| Time | N/A |
|---|---|
| Airport | Sharjah International Airport (OMSJ) |
Arrival
| Time | 2026-05-04 17:59 |
|---|---|
| Airport | Bandaranaike International Colombo Airport (VCBI) |
| Time | Latitude | Longitude | Altitude | Speed | Heading |
|---|---|---|---|---|---|
| 2026-05-04 14:20 | 23.61741 | 57.50790 | 34694 ft | 500 kts | 130° |
| 2026-05-04 14:20 | 23.59559 | 57.53738 | 34692 ft | 500 kts | 130° |
| 2026-05-04 14:21 | 23.53059 | 57.62633 | 34694 ft | 500 kts | 130° |
| 2026-05-04 14:21 | 23.48743 | 57.68573 | 34701 ft | 500 kts | 130° |
| 2026-05-04 14:22 | 23.44418 | 57.74496 | 34705 ft | 500 kts | 130° |
| 2026-05-04 14:22 | 23.40081 | 57.80405 | 34701 ft | 500 kts | 130° |
| 2026-05-04 14:23 | 23.33564 | 57.89276 | 34703 ft | 500 kts | 130° |
| 2026-05-04 14:24 | 23.29226 | 57.95182 | 34711 ft | 499 kts | 130° |
| 2026-05-04 14:24 | 23.24898 | 58.01081 | 34715 ft | 499 kts | 130° |
| 2026-05-04 14:25 | 23.20804 | 58.07124 | 34708 ft | 500 kts | 126° |
| 2026-05-04 14:25 | 23.15049 | 58.16580 | 34705 ft | 500 kts | 124° |
| 2026-05-04 14:26 | 23.11167 | 58.22845 | 34700 ft | 500 kts | 126° |
| 2026-05-04 14:26 | 23.07181 | 58.29091 | 34703 ft | 499 kts | 126° |
| 2026-05-04 14:27 | 23.03154 | 58.35158 | 34705 ft | 497 kts | 133° |
| 2026-05-04 14:27 | 22.98007 | 58.40062 | 34704 ft | 490 kts | 151° |
| 2026-05-04 14:28 | 22.92190 | 58.43913 | 34699 ft | 490 kts | 152° |
| 2026-05-04 14:28 | 22.86379 | 58.47764 | 34701 ft | 490 kts | 151° |
| 2026-05-04 14:29 | 22.74747 | 58.55468 | 34701 ft | 490 kts | 151° |
| 2026-05-04 14:30 | 22.68937 | 58.59316 | 34705 ft | 490 kts | 151° |
| 2026-05-04 14:31 | 22.60210 | 58.65068 | 34702 ft | 489 kts | 151° |
| 2026-05-04 14:32 | 22.48591 | 58.72726 | 34706 ft | 489 kts | 151° |
| 2026-05-04 14:32 | 22.42775 | 58.76558 | 34711 ft | 489 kts | 151° |
| 2026-05-04 14:33 | 22.36967 | 58.80376 | 34711 ft | 489 kts | 151° |
| 2026-05-04 14:33 | 22.31160 | 58.84192 | 34709 ft | 489 kts | 151° |
| 2026-05-04 14:34 | 22.25370 | 58.88040 | 34711 ft | 490 kts | 147° |
| 2026-05-04 14:34 | 22.20395 | 58.93077 | 34706 ft | 494 kts | 131° |
| 2026-05-04 14:35 | 22.16035 | 58.98749 | 34703 ft | 494 kts | 131° |
| 2026-05-04 14:35 | 22.11638 | 59.04447 | 34700 ft | 495 kts | 131° |
| 2026-05-04 14:36 | 22.07227 | 59.10149 | 34702 ft | 495 kts | 131° |
| 2026-05-04 14:36 | 22.02814 | 59.15857 | 34705 ft | 495 kts | 131° |
| 2026-05-04 14:37 | 21.98401 | 59.21551 | 34704 ft | 495 kts | 131° |
| 2026-05-04 14:37 | 21.93998 | 59.27233 | 34717 ft | 494 kts | 131° |
| 2026-05-04 14:38 | 21.89598 | 59.32912 | 34715 ft | 493 kts | 131° |
| 2026-05-04 14:38 | 21.85197 | 59.38575 | 34721 ft | 493 kts | 131° |
| 2026-05-04 14:39 | 21.80791 | 59.44230 | 34716 ft | 493 kts | 131° |
| 2026-05-04 14:39 | 21.76391 | 59.49889 | 34712 ft | 493 kts | 131° |
| 2026-05-04 14:40 | 21.69787 | 59.58375 | 34710 ft | 493 kts | 131° |
| 2026-05-04 14:40 | 21.65376 | 59.64026 | 34707 ft | 493 kts | 131° |
| 2026-05-04 14:41 | 21.60961 | 59.69673 | 34709 ft | 494 kts | 131° |
| 2026-05-04 14:42 | 21.52146 | 59.80924 | 34713 ft | 494 kts | 131° |
| 2026-05-04 14:42 | 21.47717 | 59.86557 | 34714 ft | 494 kts | 131° |
| 2026-05-04 14:43 | 21.43278 | 59.92183 | 34710 ft | 493 kts | 131° |
| 2026-05-04 14:43 | 21.38846 | 59.97789 | 34712 ft | 492 kts | 131° |
| 2026-05-04 14:44 | 21.34421 | 60.03388 | 34711 ft | 492 kts | 131° |
| 2026-05-04 14:44 | 21.29999 | 60.08997 | 34712 ft | 492 kts | 131° |
| 2026-05-04 14:45 | 21.25575 | 60.14609 | 34715 ft | 493 kts | 131° |
| 2026-05-04 14:45 | 21.21143 | 60.20208 | 34717 ft | 492 kts | 131° |
| 2026-05-04 14:46 | 21.17463 | 60.24860 | 34731 ft | 492 kts | 131° |
| 2026-05-04 14:46 | 21.13035 | 60.30444 | 34717 ft | 491 kts | 131° |
| 2026-05-04 14:47 | 21.08615 | 60.36019 | 34729 ft | 491 kts | 131° |
| 2026-05-04 14:47 | 21.04205 | 60.41600 | 34719 ft | 491 kts | 131° |
| 2026-05-04 14:48 | 20.99786 | 60.47176 | 34735 ft | 491 kts | 131° |
| 2026-05-04 14:48 | 20.95366 | 60.52725 | 34740 ft | 490 kts | 131° |
| 2026-05-04 14:49 | 20.90949 | 60.58274 | 34734 ft | 490 kts | 131° |
| 2026-05-04 14:49 | 20.86544 | 60.63824 | 34733 ft | 489 kts | 131° |
| 2026-05-04 14:50 | 20.82141 | 60.69365 | 34736 ft | 489 kts | 131° |
| 2026-05-04 14:50 | 20.77733 | 60.74893 | 34727 ft | 488 kts | 131° |
| 2026-05-04 14:51 | 20.73354 | 60.80371 | 34723 ft | 488 kts | 131° |
| 2026-05-04 14:51 | 20.68918 | 60.85930 | 34722 ft | 488 kts | 131° |
| 2026-05-04 14:52 | 20.64546 | 60.91413 | 34720 ft | 488 kts | 131° |
| 2026-05-04 14:52 | 20.60395 | 60.97133 | 34714 ft | 489 kts | 123° |
| 2026-05-04 14:53 | 20.56752 | 61.03250 | 34712 ft | 488 kts | 123° |
| 2026-05-04 14:53 | 20.53101 | 61.09360 | 34711 ft | 488 kts | 123° |
| 2026-05-04 14:54 | 20.49440 | 61.15464 | 34713 ft | 488 kts | 123° |
| 2026-05-04 14:54 | 20.45791 | 61.21565 | 34716 ft | 488 kts | 123° |
| 2026-05-04 14:55 | 20.42149 | 61.27670 | 34714 ft | 488 kts | 123° |
| 2026-05-04 14:55 | 20.38499 | 61.33758 | 34712 ft | 488 kts | 123° |
| 2026-05-04 14:56 | 20.34842 | 61.39849 | 34714 ft | 487 kts | 123° |
| 2026-05-04 14:56 | 20.31185 | 61.45936 | 34716 ft | 488 kts | 123° |
| 2026-05-04 14:57 | 20.27519 | 61.52009 | 34715 ft | 488 kts | 123° |
| 2026-05-04 14:57 | 20.23859 | 61.58088 | 34719 ft | 487 kts | 123° |
| 2026-05-04 14:58 | 20.20205 | 61.64163 | 34719 ft | 487 kts | 123° |
| 2026-05-04 14:58 | 20.16540 | 61.70231 | 34718 ft | 487 kts | 123° |
| 2026-05-04 14:59 | 20.12876 | 61.76291 | 34718 ft | 487 kts | 123° |
| 2026-05-04 15:00 | 20.07401 | 61.85336 | 34720 ft | 487 kts | 123° |
| 2026-05-04 15:00 | 20.03738 | 61.91387 | 34721 ft | 487 kts | 123° |
| 2026-05-04 15:01 | 19.98244 | 62.00464 | 34721 ft | 486 kts | 123° |
| 2026-05-04 15:01 | 19.94580 | 62.06498 | 34713 ft | 486 kts | 123° |
| 2026-05-04 15:02 | 19.90909 | 62.12528 | 34717 ft | 486 kts | 123° |
| 2026-05-04 15:02 | 19.87234 | 62.18554 | 34716 ft | 486 kts | 123° |
| 2026-05-04 15:03 | 19.83563 | 62.24594 | 34716 ft | 486 kts | 123° |
| 2026-05-04 15:03 | 19.79894 | 62.30622 | 34719 ft | 486 kts | 123° |
| 2026-05-04 15:04 | 19.76213 | 62.36641 | 34714 ft | 486 kts | 123° |
| 2026-05-04 15:04 | 19.72535 | 62.42653 | 34718 ft | 485 kts | 123° |
| 2026-05-04 15:05 | 19.68858 | 62.48667 | 34720 ft | 485 kts | 123° |
| 2026-05-04 15:05 | 19.65184 | 62.54671 | 34717 ft | 485 kts | 123° |
| 2026-05-04 15:06 | 19.61508 | 62.60675 | 34715 ft | 486 kts | 123° |
| 2026-05-04 15:07 | 19.56014 | 62.69629 | 34717 ft | 485 kts | 123° |
| 2026-05-04 15:07 | 19.52334 | 62.75626 | 34730 ft | 485 kts | 123° |
| 2026-05-04 15:08 | 19.48647 | 62.81611 | 34733 ft | 485 kts | 123° |
| 2026-05-04 15:08 | 19.44966 | 62.87589 | 34742 ft | 484 kts | 123° |
| 2026-05-04 15:09 | 19.41291 | 62.93569 | 34733 ft | 484 kts | 123° |
| 2026-05-04 15:09 | 19.37609 | 62.99539 | 34736 ft | 484 kts | 123° |
| 2026-05-04 15:10 | 19.32084 | 63.08483 | 34736 ft | 484 kts | 123° |
| 2026-05-04 15:11 | 19.26552 | 63.17419 | 34739 ft | 484 kts | 123° |
| 2026-05-04 15:11 | 19.22869 | 63.23369 | 34740 ft | 484 kts | 123° |
| 2026-05-04 15:12 | 19.19183 | 63.29325 | 34741 ft | 484 kts | 123° |
| 2026-05-04 15:12 | 19.15489 | 63.35276 | 34738 ft | 483 kts | 123° |
| 2026-05-04 15:13 | 19.11792 | 63.41213 | 34742 ft | 483 kts | 123° |
| 2026-05-04 15:13 | 19.08105 | 63.47151 | 34746 ft | 483 kts | 123° |
| 2026-05-04 15:14 | 19.04418 | 63.53085 | 34743 ft | 483 kts | 123° |
| 2026-05-04 15:14 | 19.00727 | 63.59008 | 34741 ft | 482 kts | 123° |
| 2026-05-04 15:15 | 18.97067 | 63.64888 | 34745 ft | 482 kts | 123° |
| 2026-05-04 15:15 | 18.93386 | 63.70804 | 34740 ft | 482 kts | 123° |
| 2026-05-04 15:16 | 18.87854 | 63.79662 | 34743 ft | 482 kts | 123° |
| 2026-05-04 15:17 | 18.82317 | 63.88513 | 34747 ft | 481 kts | 123° |
| 2026-05-04 15:17 | 18.76782 | 63.97351 | 34752 ft | 481 kts | 123° |
| 2026-05-04 15:18 | 18.73110 | 64.03233 | 34755 ft | 480 kts | 123° |
| 2026-05-04 15:19 | 18.67582 | 64.12038 | 34753 ft | 480 kts | 123° |
| 2026-05-04 15:19 | 18.62051 | 64.20830 | 34754 ft | 480 kts | 123° |
| 2026-05-04 15:20 | 18.58358 | 64.26692 | 34755 ft | 479 kts | 123° |
| 2026-05-04 15:20 | 18.54672 | 64.32542 | 34758 ft | 479 kts | 123° |
| 2026-05-04 15:21 | 18.50983 | 64.38387 | 34756 ft | 478 kts | 123° |
| 2026-05-04 15:22 | 18.45466 | 64.47153 | 34753 ft | 479 kts | 123° |
| 2026-05-04 15:22 | 18.39959 | 64.55868 | 34752 ft | 479 kts | 123° |
| 2026-05-04 15:23 | 18.36272 | 64.61698 | 34753 ft | 479 kts | 123° |
| 2026-05-04 15:23 | 18.32583 | 64.67531 | 34750 ft | 479 kts | 123° |
| 2026-05-04 15:24 | 18.25179 | 64.79179 | 34750 ft | 479 kts | 123° |
| 2026-05-04 15:25 | 18.21481 | 64.85001 | 34751 ft | 479 kts | 123° |
| 2026-05-04 15:26 | 18.15941 | 64.93749 | 34744 ft | 479 kts | 123° |
| 2026-05-04 15:26 | 18.10375 | 65.02484 | 34742 ft | 479 kts | 123° |
| 2026-05-04 15:27 | 18.04809 | 65.11219 | 34745 ft | 480 kts | 123° |
| 2026-05-04 15:28 | 17.99264 | 65.19913 | 34752 ft | 479 kts | 124° |
| 2026-05-04 15:29 | 17.93701 | 65.28621 | 34770 ft | 478 kts | 123° |
| 2026-05-04 15:30 | 17.80737 | 65.48847 | 34773 ft | 477 kts | 123° |
| 2026-05-04 15:31 | 17.75191 | 65.57513 | 34783 ft | 477 kts | 124° |
| 2026-05-04 15:32 | 17.65926 | 65.71914 | 34784 ft | 477 kts | 124° |
| 2026-05-04 15:34 | 17.56765 | 65.86393 | 34785 ft | 476 kts | 122° |
| 2026-05-04 15:34 | 17.51424 | 65.95168 | 34781 ft | 476 kts | 122° |
| 2026-05-04 15:35 | 17.46027 | 66.03897 | 34785 ft | 476 kts | 123° |
| 2026-05-04 15:36 | 17.40615 | 66.12630 | 34787 ft | 476 kts | 122° |
| 2026-05-04 15:36 | 17.37011 | 66.18455 | 34790 ft | 476 kts | 122° |
| 2026-05-04 15:37 | 17.33436 | 66.24235 | 34801 ft | 476 kts | 122° |
| 2026-05-04 15:37 | 17.29837 | 66.30046 | 34801 ft | 476 kts | 122° |
| 2026-05-04 15:38 | 17.26228 | 66.35850 | 34805 ft | 475 kts | 122° |
| 2026-05-04 15:38 | 17.22628 | 66.41649 | 34809 ft | 475 kts | 122° |
| 2026-05-04 15:39 | 17.19633 | 66.46467 | 34806 ft | 475 kts | 122° |
| 2026-05-04 15:40 | 17.14225 | 66.55147 | 34812 ft | 475 kts | 122° |
| 2026-05-04 15:40 | 17.10625 | 66.60928 | 34811 ft | 474 kts | 122° |
| 2026-05-04 15:41 | 17.07018 | 66.66704 | 34818 ft | 474 kts | 123° |
| 2026-05-04 15:41 | 17.03411 | 66.72473 | 34817 ft | 474 kts | 122° |
| 2026-05-04 15:42 | 16.99815 | 66.78243 | 34809 ft | 474 kts | 122° |
| 2026-05-04 15:42 | 16.96215 | 66.84002 | 34809 ft | 473 kts | 122° |
| 2026-05-04 15:43 | 16.92614 | 66.89749 | 34810 ft | 473 kts | 122° |
| 2026-05-04 15:43 | 16.89006 | 66.95498 | 34817 ft | 473 kts | 122° |
| 2026-05-04 15:44 | 16.85404 | 67.01249 | 34808 ft | 473 kts | 122° |
| 2026-05-04 15:44 | 16.81801 | 67.06998 | 34814 ft | 473 kts | 122° |
| 2026-05-04 15:45 | 16.78199 | 67.12745 | 34807 ft | 473 kts | 122° |
| 2026-05-04 15:45 | 16.74593 | 67.18483 | 34811 ft | 473 kts | 122° |
| 2026-05-04 15:46 | 16.71010 | 67.24183 | 34812 ft | 473 kts | 122° |
| 2026-05-04 15:46 | 16.67400 | 67.29918 | 34808 ft | 473 kts | 122° |
| 2026-05-04 15:47 | 16.63792 | 67.35645 | 34809 ft | 472 kts | 122° |
| 2026-05-04 15:47 | 16.60185 | 67.41370 | 34811 ft | 472 kts | 122° |
| 2026-05-04 15:48 | 16.56581 | 67.47095 | 34808 ft | 472 kts | 122° |
| 2026-05-04 15:48 | 16.51164 | 67.55665 | 34817 ft | 472 kts | 122° |
| 2026-05-04 15:49 | 16.47549 | 67.61373 | 34812 ft | 472 kts | 122° |
| 2026-05-04 15:49 | 16.43942 | 67.67077 | 34814 ft | 471 kts | 122° |
| 2026-05-04 15:50 | 16.40343 | 67.72782 | 34809 ft | 471 kts | 122° |
| 2026-05-04 15:50 | 16.36736 | 67.78480 | 34806 ft | 471 kts | 122° |
| 2026-05-04 15:51 | 16.33126 | 67.84168 | 34814 ft | 471 kts | 122° |
| 2026-05-04 15:51 | 16.29513 | 67.89854 | 34811 ft | 471 kts | 122° |
| 2026-05-04 15:52 | 16.25905 | 67.95538 | 34807 ft | 470 kts | 122° |
| 2026-05-04 15:52 | 16.22322 | 68.01227 | 34808 ft | 470 kts | 122° |
| 2026-05-04 15:53 | 16.18747 | 68.06927 | 34817 ft | 470 kts | 122° |
| 2026-05-04 15:53 | 16.15164 | 68.12622 | 34818 ft | 470 kts | 122° |
| 2026-05-04 15:54 | 16.11587 | 68.18307 | 34813 ft | 470 kts | 122° |
| 2026-05-04 15:54 | 16.08008 | 68.23990 | 34812 ft | 470 kts | 122° |
| 2026-05-04 15:55 | 16.04423 | 68.29664 | 34805 ft | 470 kts | 122° |
| 2026-05-04 15:55 | 16.00834 | 68.35347 | 34806 ft | 470 kts | 122° |
| 2026-05-04 15:56 | 15.97243 | 68.41023 | 34793 ft | 470 kts | 122° |
| 2026-05-04 15:56 | 15.93648 | 68.46699 | 34799 ft | 470 kts | 122° |
| 2026-05-04 15:57 | 15.90058 | 68.52376 | 34812 ft | 470 kts | 122° |
| 2026-05-04 15:57 | 15.86463 | 68.58047 | 34811 ft | 470 kts | 122° |
| 2026-05-04 15:58 | 15.82869 | 68.63711 | 34801 ft | 470 kts | 122° |
| 2026-05-04 15:58 | 15.79273 | 68.69379 | 34802 ft | 470 kts | 122° |
| 2026-05-04 15:59 | 15.75685 | 68.75043 | 34820 ft | 469 kts | 122° |
| 2026-05-04 15:59 | 15.72114 | 68.80664 | 34837 ft | 469 kts | 122° |
| 2026-05-04 16:00 | 15.68513 | 68.86318 | 34845 ft | 469 kts | 122° |
| 2026-05-04 16:00 | 15.64913 | 68.91968 | 34851 ft | 470 kts | 122° |
| 2026-05-04 16:01 | 15.61305 | 68.97619 | 34854 ft | 470 kts | 122° |
| 2026-05-04 16:01 | 15.57702 | 69.03273 | 34851 ft | 470 kts | 122° |
| 2026-05-04 16:02 | 15.54103 | 69.08924 | 34850 ft | 470 kts | 122° |
| 2026-05-04 16:03 | 15.48692 | 69.17392 | 34854 ft | 469 kts | 122° |
| 2026-05-04 16:03 | 15.45095 | 69.23041 | 34854 ft | 469 kts | 122° |
| 2026-05-04 16:04 | 15.41492 | 69.28679 | 34855 ft | 469 kts | 123° |
| 2026-05-04 16:04 | 15.36072 | 69.37135 | 34846 ft | 469 kts | 123° |
| 2026-05-04 16:05 | 15.32459 | 69.42766 | 34840 ft | 470 kts | 123° |
| 2026-05-04 16:06 | 15.27060 | 69.51182 | 34840 ft | 470 kts | 123° |
| 2026-05-04 16:07 | 15.19830 | 69.62452 | 34842 ft | 470 kts | 123° |
| 2026-05-04 16:08 | 15.12598 | 69.73708 | 34839 ft | 469 kts | 123° |
| 2026-05-04 16:09 | 15.03618 | 69.87812 | 34837 ft | 470 kts | 122° |
| 2026-05-04 16:10 | 14.96456 | 69.99105 | 34840 ft | 469 kts | 122° |
| 2026-05-04 16:11 | 14.89291 | 70.10377 | 34841 ft | 469 kts | 123° |
| 2026-05-04 16:12 | 14.78560 | 70.27206 | 34853 ft | 468 kts | 123° |
| 2026-05-04 16:13 | 14.71381 | 70.38442 | 34858 ft | 468 kts | 123° |
| 2026-05-04 16:14 | 14.64209 | 70.49669 | 34862 ft | 468 kts | 123° |
| 2026-05-04 16:16 | 14.55230 | 70.63667 | 34862 ft | 468 kts | 123° |
| 2026-05-04 16:17 | 14.46266 | 70.77656 | 34862 ft | 467 kts | 123° |
| 2026-05-04 16:18 | 14.39090 | 70.88832 | 34870 ft | 467 kts | 123° |
| 2026-05-04 16:19 | 14.30157 | 71.02821 | 34865 ft | 467 kts | 123° |
| 2026-05-04 16:20 | 14.21330 | 71.16831 | 34876 ft | 467 kts | 123° |
| 2026-05-04 16:22 | 14.12451 | 71.30826 | 34870 ft | 466 kts | 123° |
| 2026-05-04 16:23 | 14.01825 | 71.47602 | 34866 ft | 466 kts | 123° |
| 2026-05-04 16:25 | 13.91169 | 71.64343 | 34873 ft | 465 kts | 123° |
| 2026-05-04 16:26 | 13.78758 | 71.83833 | 34868 ft | 465 kts | 124° |
| 2026-05-04 16:28 | 13.69910 | 71.97691 | 34863 ft | 464 kts | 124° |
| 2026-05-04 16:29 | 13.55866 | 72.15894 | 34865 ft | 465 kts | 129° |
| 2026-05-04 16:31 | 13.46335 | 72.27944 | 34864 ft | 465 kts | 129° |
| 2026-05-04 16:32 | 13.34127 | 72.43353 | 34867 ft | 465 kts | 130° |
| 2026-05-04 16:33 | 13.25960 | 72.53646 | 34874 ft | 465 kts | 130° |
| 2026-05-04 16:34 | 13.19828 | 72.61351 | 34876 ft | 465 kts | 130° |
| 2026-05-04 16:35 | 13.07583 | 72.76761 | 34876 ft | 465 kts | 130° |
| 2026-05-04 16:36 | 13.01452 | 72.84456 | 34879 ft | 464 kts | 130° |
| 2026-05-04 16:37 | 12.95311 | 72.92152 | 34875 ft | 464 kts | 130° |
| 2026-05-04 16:38 | 12.87155 | 73.02369 | 34880 ft | 464 kts | 130° |
| 2026-05-04 16:39 | 12.76927 | 73.15164 | 34885 ft | 464 kts | 130° |
| 2026-05-04 16:40 | 12.68741 | 73.25400 | 34885 ft | 464 kts | 130° |
| 2026-05-04 16:41 | 12.58506 | 73.38179 | 34880 ft | 464 kts | 130° |
| 2026-05-04 16:43 | 12.48254 | 73.50957 | 34885 ft | 465 kts | 130° |
| 2026-05-04 16:43 | 12.42109 | 73.58621 | 34881 ft | 465 kts | 130° |
| 2026-05-04 16:45 | 12.29769 | 73.73952 | 34888 ft | 465 kts | 130° |
| 2026-05-04 16:46 | 12.19514 | 73.86687 | 34890 ft | 465 kts | 130° |
| 2026-05-04 16:47 | 12.11280 | 73.96894 | 34891 ft | 465 kts | 130° |
| 2026-05-04 16:48 | 12.03045 | 74.07090 | 34887 ft | 465 kts | 130° |
| 2026-05-04 16:49 | 11.94818 | 74.17282 | 34885 ft | 465 kts | 130° |
| 2026-05-04 16:50 | 11.86588 | 74.27468 | 34888 ft | 465 kts | 130° |
| 2026-05-04 16:51 | 11.80407 | 74.35080 | 34893 ft | 464 kts | 130° |
| 2026-05-04 16:52 | 11.72180 | 74.45244 | 34896 ft | 464 kts | 130° |
| 2026-05-04 16:53 | 11.66026 | 74.52852 | 34894 ft | 464 kts | 130° |
| 2026-05-04 16:54 | 11.57799 | 74.62974 | 34899 ft | 463 kts | 130° |
| 2026-05-04 16:55 | 11.45480 | 74.78123 | 34903 ft | 462 kts | 130° |
| 2026-05-04 16:56 | 11.35257 | 74.90686 | 34909 ft | 462 kts | 130° |
| 2026-05-04 16:57 | 11.29101 | 74.98239 | 34913 ft | 461 kts | 130° |
| 2026-05-04 16:58 | 11.20905 | 75.08288 | 34915 ft | 461 kts | 130° |
| 2026-05-04 17:00 | 11.08640 | 75.23318 | 34916 ft | 459 kts | 130° |
| 2026-05-04 17:01 | 10.98424 | 75.35811 | 34923 ft | 459 kts | 130° |
| 2026-05-04 17:02 | 10.90259 | 75.45783 | 34920 ft | 459 kts | 130° |
| 2026-05-04 17:03 | 10.84130 | 75.53265 | 34919 ft | 459 kts | 130° |
| 2026-05-04 17:03 | 10.78003 | 75.60745 | 34918 ft | 459 kts | 129° |
| 2026-05-04 17:04 | 10.69827 | 75.70717 | 34919 ft | 459 kts | 129° |
| 2026-05-04 17:05 | 10.61649 | 75.80679 | 34915 ft | 458 kts | 129° |
| 2026-05-04 17:06 | 10.55539 | 75.88101 | 34915 ft | 459 kts | 129° |
| 2026-05-04 17:07 | 10.50058 | 75.94762 | 34920 ft | 459 kts | 129° |
| 2026-05-04 17:07 | 10.45299 | 76.00551 | 34932 ft | 459 kts | 129° |
| 2026-05-04 17:08 | 10.39158 | 76.08025 | 34944 ft | 459 kts | 129° |
| 2026-05-04 17:09 | 10.35057 | 76.12998 | 34943 ft | 459 kts | 129° |
| 2026-05-04 17:09 | 10.30949 | 76.17975 | 34945 ft | 460 kts | 129° |
| 2026-05-04 17:10 | 10.20698 | 76.30408 | 34949 ft | 459 kts | 129° |
| 2026-05-04 17:11 | 10.16595 | 76.35378 | 34948 ft | 459 kts | 129° |
| 2026-05-04 17:12 | 10.10437 | 76.42817 | 34945 ft | 459 kts | 129° |
| 2026-05-04 17:13 | 10.00141 | 76.55188 | 34940 ft | 459 kts | 129° |
| 2026-05-04 17:14 | 9.91933 | 76.65059 | 34941 ft | 459 kts | 130° |
| 2026-05-04 17:15 | 9.85749 | 76.72483 | 34944 ft | 459 kts | 130° |
| 2026-05-04 17:16 | 9.77496 | 76.82383 | 34940 ft | 460 kts | 130° |
| 2026-05-04 17:17 | 9.69248 | 76.92287 | 34939 ft | 459 kts | 130° |
| 2026-05-04 17:18 | 9.60986 | 77.02187 | 34925 ft | 460 kts | 130° |
| 2026-05-04 17:19 | 9.52710 | 77.12081 | 34917 ft | 460 kts | 131° |
| 2026-05-04 17:20 | 9.45144 | 77.21142 | 34912 ft | 460 kts | 131° |
| 2026-05-04 17:20 | 9.38946 | 77.28560 | 34907 ft | 460 kts | 131° |
| 2026-05-04 17:21 | 9.30664 | 77.38439 | 34901 ft | 460 kts | 131° |
| 2026-05-04 17:22 | 9.26527 | 77.43373 | 34897 ft | 459 kts | 131° |
| 2026-05-04 17:23 | 9.18283 | 77.53211 | 34887 ft | 459 kts | 131° |
| 2026-05-04 17:24 | 9.12081 | 77.60607 | 34878 ft | 459 kts | 131° |
| 2026-05-04 17:25 | 9.03809 | 77.70468 | 34871 ft | 460 kts | 131° |
| 2026-05-04 17:26 | 8.95535 | 77.80324 | 34861 ft | 460 kts | 131° |
| 2026-05-04 17:27 | 8.85175 | 77.92643 | 34851 ft | 460 kts | 131° |
| 2026-05-04 17:28 | 8.76892 | 78.02490 | 34846 ft | 460 kts | 131° |
| 2026-05-04 17:29 | 8.64479 | 78.17221 | 34845 ft | 458 kts | 131° |
| 2026-05-04 17:31 | 8.54139 | 78.29492 | 34846 ft | 459 kts | 132° |
| 2026-05-04 17:32 | 8.43816 | 78.41722 | 34852 ft | 459 kts | 132° |
| 2026-05-04 17:33 | 8.35532 | 78.51531 | 34854 ft | 459 kts | 132° |
| 2026-05-04 17:34 | 8.27382 | 78.61454 | 34848 ft | 460 kts | 127° |
| 2026-05-04 17:35 | 8.21742 | 78.69469 | 32213 ft | 479 kts | 127° |
| 2026-05-04 17:35 | 8.17869 | 78.74968 | 30483 ft | 480 kts | 127° |
| 2026-05-04 17:35 | 8.15942 | 78.77706 | 29731 ft | 477 kts | 126° |
| 2026-05-04 17:36 | 8.14029 | 78.80425 | 29039 ft | 473 kts | 126° |
| 2026-05-04 17:36 | 8.12134 | 78.83117 | 28376 ft | 469 kts | 126° |
| 2026-05-04 17:36 | 8.10256 | 78.85790 | 27698 ft | 464 kts | 126° |
| 2026-05-04 17:36 | 8.08402 | 78.88431 | 27034 ft | 459 kts | 126° |
| 2026-05-04 17:37 | 8.06567 | 78.91044 | 26385 ft | 454 kts | 126° |
| 2026-05-04 17:37 | 8.04751 | 78.93627 | 25625 ft | 446 kts | 126° |
| 2026-05-04 17:37 | 8.02970 | 78.96156 | 24529 ft | 439 kts | 126° |
| 2026-05-04 17:37 | 8.01214 | 78.98644 | 23432 ft | 432 kts | 126° |
| 2026-05-04 17:38 | 7.99511 | 79.01056 | 22377 ft | 425 kts | 126° |
| 2026-05-04 17:38 | 7.97810 | 79.03464 | 21374 ft | 417 kts | 126° |
| 2026-05-04 17:38 | 7.96161 | 79.05800 | 20904 ft | 398 kts | 126° |
| 2026-05-04 17:38 | 7.94594 | 79.08024 | 20452 ft | 380 kts | 126° |
| 2026-05-04 17:39 | 7.91650 | 79.12206 | 19533 ft | 356 kts | 126° |
| 2026-05-04 17:39 | 7.90215 | 79.14237 | 19055 ft | 354 kts | 126° |
| 2026-05-04 17:39 | 7.88789 | 79.16255 | 18574 ft | 352 kts | 126° |
| 2026-05-04 17:40 | 7.87375 | 79.18260 | 18108 ft | 352 kts | 126° |
| 2026-05-04 17:40 | 7.85956 | 79.20274 | 17623 ft | 351 kts | 126° |
| 2026-05-04 17:40 | 7.84543 | 79.22280 | 17153 ft | 351 kts | 126° |
| 2026-05-04 17:40 | 7.83131 | 79.24283 | 16674 ft | 350 kts | 126° |
| 2026-05-04 17:41 | 7.81718 | 79.26283 | 16199 ft | 350 kts | 126° |
| 2026-05-04 17:41 | 7.80307 | 79.28279 | 15730 ft | 349 kts | 126° |
| 2026-05-04 17:41 | 7.78898 | 79.30274 | 15264 ft | 349 kts | 126° |
| 2026-05-04 17:41 | 7.77495 | 79.32263 | 14806 ft | 348 kts | 126° |
| 2026-05-04 17:42 | 7.76095 | 79.34249 | 14344 ft | 347 kts | 126° |
| 2026-05-04 17:42 | 7.74702 | 79.36229 | 13887 ft | 346 kts | 126° |
| 2026-05-04 17:42 | 7.73312 | 79.38201 | 13428 ft | 345 kts | 126° |
| 2026-05-04 17:42 | 7.71924 | 79.40166 | 12963 ft | 344 kts | 126° |
| 2026-05-04 17:43 | 7.70539 | 79.42126 | 12498 ft | 342 kts | 126° |
| 2026-05-04 17:43 | 7.69161 | 79.44075 | 12030 ft | 341 kts | 126° |
| 2026-05-04 17:43 | 7.67804 | 79.45994 | 11565 ft | 340 kts | 126° |
| 2026-05-04 17:43 | 7.66430 | 79.47934 | 11093 ft | 339 kts | 126° |
| 2026-05-04 17:44 | 7.65062 | 79.49867 | 10614 ft | 338 kts | 126° |
| 2026-05-04 17:44 | 7.63701 | 79.51791 | 10265 ft | 333 kts | 126° |
| 2026-05-04 17:44 | 7.62381 | 79.53661 | 10136 ft | 322 kts | 126° |
| 2026-05-04 17:44 | 7.61117 | 79.55467 | 10013 ft | 308 kts | 126° |
| 2026-05-04 17:45 | 7.59897 | 79.57215 | 9786 ft | 302 kts | 126° |
| 2026-05-04 17:45 | 7.58695 | 79.58924 | 9453 ft | 296 kts | 129° |
| 2026-05-04 17:45 | 7.57330 | 79.60485 | 9060 ft | 297 kts | 135° |
| 2026-05-04 17:45 | 7.55915 | 79.61985 | 8691 ft | 295 kts | 135° |
| 2026-05-04 17:46 | 7.54504 | 79.63474 | 8316 ft | 293 kts | 135° |
| 2026-05-04 17:46 | 7.53100 | 79.64952 | 7944 ft | 291 kts | 135° |
| 2026-05-04 17:46 | 7.51591 | 79.66291 | 7567 ft | 288 kts | 146° |
| 2026-05-04 17:46 | 7.49941 | 79.67425 | 7192 ft | 285 kts | 148° |
| 2026-05-04 17:47 | 7.48289 | 79.68526 | 6788 ft | 284 kts | 148° |
| 2026-05-04 17:47 | 7.46648 | 79.69617 | 6404 ft | 282 kts | 148° |
| 2026-05-04 17:47 | 7.45015 | 79.70701 | 6015 ft | 281 kts | 148° |
| 2026-05-04 17:47 | 7.43393 | 79.71783 | 5625 ft | 278 kts | 148° |
| 2026-05-04 17:48 | 7.41757 | 79.72809 | 5222 ft | 276 kts | 151° |
| 2026-05-04 17:48 | 7.40081 | 79.73753 | 4813 ft | 275 kts | 153° |
| 2026-05-04 17:48 | 7.38403 | 79.74656 | 4403 ft | 274 kts | 153° |
| 2026-05-04 17:48 | 7.36725 | 79.75550 | 4049 ft | 271 kts | 153° |
| 2026-05-04 17:49 | 7.35054 | 79.76450 | 3829 ft | 273 kts | 152° |
| 2026-05-04 17:49 | 7.33389 | 79.77354 | 3610 ft | 272 kts | 152° |
| 2026-05-04 17:49 | 7.31727 | 79.78264 | 3504 ft | 271 kts | 152° |
| 2026-05-04 17:49 | 7.30071 | 79.79171 | 3498 ft | 271 kts | 152° |
| 2026-05-04 17:50 | 7.28414 | 79.80082 | 3507 ft | 270 kts | 152° |
| 2026-05-04 17:50 | 7.26762 | 79.80987 | 3507 ft | 272 kts | 152° |
| 2026-05-04 17:50 | 7.25123 | 79.81886 | 3505 ft | 272 kts | 152° |
| 2026-05-04 17:50 | 7.23467 | 79.82799 | 3509 ft | 272 kts | 152° |
| 2026-05-04 17:51 | 7.21809 | 79.83711 | 3514 ft | 271 kts | 152° |
| 2026-05-04 17:51 | 7.20143 | 79.84628 | 3512 ft | 272 kts | 152° |
| 2026-05-04 17:51 | 7.18471 | 79.85516 | 3508 ft | 271 kts | 159° |
| 2026-05-04 17:51 | 7.16646 | 79.85914 | 3512 ft | 268 kts | 181° |
| 2026-05-04 17:52 | 7.14822 | 79.85614 | 3515 ft | 265 kts | 202° |
| 2026-05-04 17:52 | 7.13285 | 79.84734 | 3512 ft | 246 kts | 218° |
| 2026-05-04 17:52 | 7.11965 | 79.83741 | 3419 ft | 231 kts | 218° |
| 2026-05-04 17:52 | 7.10694 | 79.82769 | 3140 ft | 227 kts | 222° |
| 2026-05-04 17:53 | 7.09754 | 79.81530 | 2875 ft | 221 kts | 248° |
| 2026-05-04 17:53 | 7.09370 | 79.80055 | 2668 ft | 217 kts | 258° |
| 2026-05-04 17:53 | 7.09079 | 79.78570 | 2391 ft | 216 kts | 258° |
| 2026-05-04 17:53 | 7.08788 | 79.77082 | 2099 ft | 217 kts | 258° |
| 2026-05-04 17:54 | 7.08269 | 79.75685 | 1904 ft | 211 kts | 233° |
| 2026-05-04 17:54 | 7.07172 | 79.74803 | 1857 ft | 201 kts | 199° |
| 2026-05-04 17:54 | 7.05817 | 79.74721 | 1841 ft | 197 kts | 164° |
| 2026-05-04 17:54 | 7.04688 | 79.75462 | 1796 ft | 198 kts | 127° |
| 2026-05-04 17:55 | 7.04195 | 79.76737 | 1752 ft | 199 kts | 92° |
| 2026-05-04 17:55 | 7.04564 | 79.78062 | 1720 ft | 202 kts | 53° |
| 2026-05-04 17:55 | 7.05626 | 79.78980 | 1636 ft | 203 kts | 33° |
| 2026-05-04 17:55 | 7.06808 | 79.79760 | 1573 ft | 202 kts | 36° |
| 2026-05-04 17:56 | 7.07922 | 79.80573 | 1621 ft | 189 kts | 37° |
| 2026-05-04 17:56 | 7.08910 | 79.81325 | 1673 ft | 170 kts | 38° |
| 2026-05-04 17:56 | 7.09823 | 79.82023 | 1651 ft | 161 kts | 38° |
| 2026-05-04 17:56 | 7.10693 | 79.82689 | 1559 ft | 159 kts | 38° |
| 2026-05-04 17:57 | 7.11563 | 79.83356 | 1336 ft | 156 kts | 38° |
| 2026-05-04 17:57 | 7.12423 | 79.84017 | 1138 ft | 155 kts | 39° |
| 2026-05-04 17:57 | 7.13275 | 79.84672 | 932 ft | 154 kts | 39° |
| 2026-05-04 17:57 | 7.14122 | 79.85319 | 717 ft | 152 kts | 39° |
| 2026-05-04 17:58 | 7.14963 | 79.85965 | 517 ft | 152 kts | 39° |
| 2026-05-04 17:58 | 7.15800 | 79.86605 | 354 ft | 151 kts | 39° |
| 2026-05-04 17:58 | 7.16638 | 79.87247 | 154 ft | 151 kts | 38° |
| 2026-05-04 17:58 | 7.17454 | 79.87871 | 29 ft | 138 kts | 37° |
| 2026-05-04 17:59 | 7.18074 | 79.88343 | 29 ft | 86 kts | 37° |
| 2026-05-04 17:59 | 7.18413 | 79.88603 | 28 ft | 37 kts | 37° |
| 2026-05-04 17:59 | 7.18696 | 79.88828 | 29 ft | 11 kts | 69° |
| 2026-05-04 18:00 | 7.18662 | 79.88892 | 29 ft | 10 kts | 129° |
| 2026-05-04 18:00 | 7.18617 | 79.88946 | 28 ft | 10 kts | 131° |
| 2026-05-04 18:00 | 7.18565 | 79.88944 | 28 ft | 8 kts | 221° |
| 2026-05-04 18:00 | 7.18523 | 79.88911 | 28 ft | 10 kts | 215° |
| 2026-05-04 18:01 | 7.18453 | 79.88859 | 28 ft | 14 kts | 217° |
| 2026-05-04 18:01 | 7.18376 | 79.88801 | 27 ft | 14 kts | 217° |
| 2026-05-04 18:01 | 7.18297 | 79.88741 | 27 ft | 14 kts | 217° |
| 2026-05-04 18:02 | 7.18134 | 79.88617 | 27 ft | 15 kts | 217° |
| 2026-05-04 18:02 | 7.18046 | 79.88550 | 27 ft | 17 kts | 217° |
| 2026-05-04 18:02 | 7.17948 | 79.88476 | 28 ft | 18 kts | 217° |
| 2026-05-04 18:02 | 7.17863 | 79.88432 | 27 ft | 9 kts | 156° |
| 2026-05-04 18:03 | 7.17827 | 79.88477 | 27 ft | 8 kts | 127° |
| 2026-05-04 18:03 | 7.17791 | 79.88512 | 27 ft | 6 kts | 146° |
| 2026-05-04 18:03 | 7.17753 | 79.88518 | 27 ft | 5 kts | 188° |
| 2026-05-04 18:03 | 7.17727 | 79.88503 | 27 ft | 4 kts | 218° |
| 2026-05-04 18:04 | 7.17708 | 79.88488 | 27 ft | 3 kts | 219° |
| 2026-05-04 18:04 | 7.17694 | 79.88477 | 27 ft | 2 kts | 217° |
| 2026-05-04 18:04 | 7.17687 | 79.88472 | 27 ft | 0 kts | 218° |